Time;durP1;ratioP1;P1;durP2;ratioP2;P2;SDS_P1;SDS_P2;PMS_P1;PMS_P2;Temp;Humidity;BMP_temperature;BMP_pressure;BME280_temperature;BME280_humidity;BME280_pressure;Samples;Min_cycle;Max_cycle;Signal;HPM_P1;HPM_P2
2023/08/23 00:02:21;;;;;;;;;;;23.70;46.70;;;;;;5032604;28;19909;-70
2023/08/23 00:04:49;;;;;;;;;;;23.90;45.60;;;;;;5030281;28;19913;-72
2023/08/23 00:07:16;;;;;;;;;;;23.90;44.70;;;;;;5032546;28;20355;-72
2023/08/23 00:09:43;;;;;;;;;;;23.80;45.80;;;;;;5032567;28;19913;-72
2023/08/23 00:12:09;;;;;;;;;;;23.80;45.80;;;;;;5032274;28;19916;-72
2023/08/23 00:14:36;;;;;;;;;;;24.10;45.50;;;;;;5031924;28;19962;-71
2023/08/23 00:17:02;;;;;;;;;;;25.00;44.80;;;;;;5032205;28;19909;-71
2023/08/23 00:19:29;;;;;;;;;;;24.60;44.40;;;;;;5032073;28;20231;-71
2023/08/23 00:21:56;;;;;;;;;;;24.50;45.20;;;;;;5031782;28;20015;-71
2023/08/23 00:24:22;;;;;;;;;;;24.70;44.90;;;;;;5031868;28;19963;-72
2023/08/23 00:26:49;;;;;;;;;;;24.80;44.50;;;;;;5033148;28;19909;-71
2023/08/23 00:29:16;;;;;;;;;;;24.70;44.10;;;;;;5036112;28;19917;-72
2023/08/23 00:31:42;;;;;;;;;;;24.40;44.60;;;;;;5035997;28;20003;-72
2023/08/23 00:34:09;;;;;;;;;;;24.30;45.30;;;;;;5035573;28;19913;-72
2023/08/23 00:36:36;;;;;;;;;;;24.20;45.40;;;;;;5035796;28;19909;-72
2023/08/23 00:39:02;;;;;;;;;;;24.50;44.10;;;;;;5035604;28;19963;-72
2023/08/23 00:41:29;;;;;;;;;;;24.60;45.00;;;;;;5035980;28;19913;-73
2023/08/23 00:43:56;;;;;;;;;;;24.80;44.30;;;;;;5035222;28;19925;-72
2023/08/23 00:46:22;;;;;;;;;;;25.10;44.80;;;;;;5050521;28;19909;-72
2023/08/23 00:48:50;;;;;;;;;;;25.40;44.00;;;;;;5035383;28;19979;-72
2023/08/23 00:51:18;;;;;;;;;;;25.40;42.40;;;;;;5035116;28;19913;-72
2023/08/23 00:53:44;;;;;;;;;;;25.40;44.00;;;;;;5035088;28;19909;-71
2023/08/23 00:56:12;;;;;;;;;;;26.10;43.20;;;;;;5035142;28;19913;-72
2023/08/23 00:58:38;;;;;;;;;;;25.30;42.00;;;;;;5035141;28;20337;-72
2023/08/23 01:01:05;;;;;;;;;;;25.40;42.80;;;;;;5035257;28;20366;-71
2023/08/23 01:03:33;;;;;;;;;;;25.40;43.50;;;;;;5034654;28;20386;-72
2023/08/23 01:06:11;;;;;;;;;;;25.30;43.70;;;;;;5033958;28;19909;-73
2023/08/23 01:09:06;;;;;;;;;;;25.50;43.80;;;;;;5035221;28;19909;-72
2023/08/23 01:11:39;;;;;;;;;;;25.40;43.50;;;;;;5029258;28;20373;-73
2023/08/23 01:14:15;;;;;;;;;;;25.60;42.70;;;;;;5034517;28;20374;-71
2023/08/23 01:16:43;;;;;;;;;;;25.50;42.60;;;;;;5034970;28;19913;-72
2023/08/23 01:19:28;;;;;;;;;;;25.60;43.20;;;;;;5033376;28;19924;-72
2023/08/23 01:21:57;;;;;;;;;;;26.00;42.40;;;;;;5035236;28;19910;-72
2023/08/23 01:24:23;;;;;;;;;;;25.70;42.50;;;;;;5032997;28;19955;-72
2023/08/23 01:26:50;;;;;;;;;;;26.00;43.70;;;;;;5034874;28;19952;-72
2023/08/23 01:29:17;;;;;;;;;;;25.70;42.30;;;;;;5034596;28;19913;-72
2023/08/23 01:31:44;;;;;;;;;;;25.80;42.90;;;;;;5034749;28;19910;-72
2023/08/23 01:34:16;;;;;;;;;;;26.10;43.80;;;;;;5034561;28;19955;-72
2023/08/23 01:36:43;;;;;;;;;;;26.10;44.00;;;;;;5034724;28;20018;-71
2023/08/23 01:39:10;;;;;;;;;;;26.20;43.10;;;;;;5034204;28;19964;-71
2023/08/23 01:41:37;;;;;;;;;;;26.50;43.10;;;;;;5034683;28;19963;-72
2023/08/23 01:44:05;;;;;;;;;;;26.50;42.90;;;;;;5033870;28;20030;-71
2023/08/23 01:46:33;;;;;;;;;;;26.60;42.10;;;;;;5034034;28;19916;-71
2023/08/23 01:49:01;;;;;;;;;;;25.10;43.70;;;;;;5034534;28;19909;-72
2023/08/23 01:51:28;;;;;;;;;;;25.00;44.60;;;;;;5034581;28;19916;-71
2023/08/23 01:53:54;;;;;;;;;;;25.40;44.70;;;;;;5033568;28;19915;-71
2023/08/23 01:56:21;;;;;;;;;;;25.00;44.50;;;;;;5033110;28;19955;-73
2023/08/23 01:58:47;;;;;;;;;;;25.40;45.30;;;;;;5034095;28;20004;-73
2023/08/23 02:01:14;;;;;;;;;;;24.90;44.90;;;;;;5034107;28;19968;-72
2023/08/23 02:03:41;;;;;;;;;;;24.50;45.90;;;;;;5033730;28;19909;-73
2023/08/23 02:06:07;;;;;;;;;;;24.20;45.90;;;;;;5033814;28;19909;-72
2023/08/23 02:08:35;;;;;;;;;;;23.80;46.20;;;;;;5034095;28;19913;-73
2023/08/23 02:11:02;;;;;;;;;;;23.30;47.10;;;;;;5033503;28;19932;-73
2023/08/23 02:13:29;;;;;;;;;;;23.10;49.00;;;;;;5033984;28;19910;-72
2023/08/23 02:15:55;;;;;;;;;;;23.10;49.10;;;;;;5032434;28;19909;-72
2023/08/23 02:18:22;;;;;;;;;;;22.80;50.00;;;;;;5033600;28;19909;-72
2023/08/23 02:20:58;;;;;;;;;;;22.30;51.90;;;;;;5033054;28;19916;-72
2023/08/23 02:23:25;;;;;;;;;;;22.00;51.00;;;;;;5033321;28;19917;-72
2023/08/23 02:25:52;;;;;;;;;;;21.80;52.80;;;;;;5033638;28;19913;-72
2023/08/23 02:28:18;;;;;;;;;;;21.70;52.60;;;;;;5033515;28;19909;-71
2023/08/23 02:30:45;;;;;;;;;;;22.00;53.50;;;;;;5033513;28;19953;-72
2023/08/23 02:33:12;;;;;;;;;;;21.90;53.70;;;;;;5033194;28;19909;-72
2023/08/23 02:35:46;;;;;;;;;;;21.90;53.30;;;;;;5033813;28;19913;-72
2023/08/23 02:38:14;;;;;;;;;;;21.90;53.20;;;;;;5033145;28;19916;-72
2023/08/23 02:40:42;;;;;;;;;;;21.80;53.50;;;;;;5033714;28;19951;-72
2023/08/23 02:43:09;;;;;;;;;;;21.70;53.40;;;;;;5032943;28;19920;-72
2023/08/23 02:45:39;;;;;;;;;;;21.80;54.00;;;;;;5031742;28;19917;-72
2023/08/23 02:48:07;;;;;;;;;;;21.80;54.50;;;;;;5033749;28;19917;-72
2023/08/23 02:50:33;;;;;;;;;;;21.90;54.40;;;;;;5032846;28;20346;-72
2023/08/23 02:53:00;;;;;;;;;;;21.70;54.80;;;;;;5031922;28;20286;-72
2023/08/23 02:55:27;;;;;;;;;;;21.90;54.70;;;;;;5032852;28;19917;-71
2023/08/23 02:57:53;;;;;;;;;;;22.00;54.60;;;;;;5033398;28;19968;-72
2023/08/23 03:00:20;;;;;;;;;;;21.90;54.60;;;;;;5032493;28;19917;-72
2023/08/23 03:02:46;;;;;;;;;;;21.90;54.70;;;;;;5033200;28;19920;-72
2023/08/23 03:05:13;;;;;;;;;;;22.00;55.00;;;;;;5030860;28;19909;-71
2023/08/23 03:07:40;;;;;;;;;;;21.70;55.20;;;;;;5032988;28;20007;-72
2023/08/23 03:10:07;;;;;;;;;;;21.70;56.70;;;;;;5040968;28;19920;-72
2023/08/23 03:12:34;;;;;;;;;;;21.90;55.90;;;;;;5011661;28;19909;-72
2023/08/23 03:15:00;;;;;;;;;;;21.60;57.50;;;;;;5012192;28;20016;-71
2023/08/23 03:17:27;;;;;;;;;;;21.60;56.60;;;;;;5015943;28;20000;-72
2023/08/23 03:19:55;;;;;;;;;;;21.50;57.10;;;;;;5032781;28;20362;-72
2023/08/23 03:22:22;;;;;;;;;;;21.40;58.40;;;;;;5032681;28;19913;-72
2023/08/23 03:24:49;;;;;;;;;;;21.50;57.40;;;;;;5032411;28;19957;-72
2023/08/23 03:27:16;;;;;;;;;;;21.40;58.00;;;;;;5032428;28;20161;-72
2023/08/23 03:29:49;;;;;;;;;;;21.00;59.30;;;;;;5032851;28;19909;-72
2023/08/23 03:32:15;;;;;;;;;;;20.70;59.50;;;;;;5032907;28;19954;-73
2023/08/23 03:34:42;;;;;;;;;;;20.50;61.50;;;;;;5032252;28;19972;-73
2023/08/23 03:37:09;;;;;;;;;;;20.60;62.50;;;;;;5032680;28;20278;-73
2023/08/23 03:39:37;;;;;;;;;;;20.40;62.50;;;;;;5032484;28;19924;-73
2023/08/23 03:42:04;;;;;;;;;;;20.50;62.50;;;;;;5030930;28;19909;-72
2023/08/23 03:44:30;;;;;;;;;;;20.30;63.70;;;;;;5030214;28;20374;-73
2023/08/23 03:46:57;;;;;;;;;;;20.30;65.30;;;;;;5032700;28;20251;-73
2023/08/23 03:49:23;;;;;;;;;;;20.40;65.90;;;;;;5032503;28;19988;-72
2023/08/23 03:51:50;;;;;;;;;;;20.60;65.50;;;;;;5047918;28;20382;-73
2023/08/23 03:54:19;;;;;;;;;;;20.70;64.00;;;;;;5031976;28;19924;-73
2023/08/23 03:56:46;;;;;;;;;;;20.70;64.40;;;;;;5032299;28;20353;-72
2023/08/23 03:59:13;;;;;;;;;;;20.80;64.50;;;;;;5032352;28;20325;-73
2023/08/23 04:01:39;;;;;;;;;;;21.10;63.30;;;;;;5034242;28;19909;-72
2023/08/23 04:04:06;;;;;;;;;;;20.90;63.90;;;;;;5035979;28;19913;-72
2023/08/23 04:06:33;;;;;;;;;;;21.10;62.50;;;;;;5036518;28;19932;-72
2023/08/23 04:08:59;;;;;;;;;;;21.00;62.30;;;;;;5035719;28;19948;-72
2023/08/23 04:11:26;;;;;;;;;;;21.10;62.50;;;;;;5016435;28;20397;-72
2023/08/23 04:13:52;;;;;;;;;;;20.90;61.40;;;;;;5016583;28;19916;-72
2023/08/23 04:16:19;;;;;;;;;;;20.70;61.80;;;;;;5016391;28;20020;-72
2023/08/23 04:18:46;;;;;;;;;;;20.60;63.40;;;;;;5021805;28;19917;-72
2023/08/23 04:21:13;;;;;;;;;;;20.80;63.50;;;;;;5034659;28;20339;-71
2023/08/23 04:23:39;;;;;;;;;;;20.80;63.80;;;;;;5035515;28;19909;-72
2023/08/23 04:26:06;;;;;;;;;;;20.90;63.50;;;;;;5035939;28;19909;-72
2023/08/23 04:28:33;;;;;;;;;;;20.60;64.00;;;;;;5035650;28;19913;-72
2023/08/23 04:31:00;;;;;;;;;;;20.40;65.10;;;;;;5035820;28;19909;-72
2023/08/23 04:33:27;;;;;;;;;;;20.20;65.20;;;;;;5035583;28;20035;-72
2023/08/23 04:35:54;;;;;;;;;;;19.90;66.30;;;;;;5035329;28;19913;-72
2023/08/23 04:38:20;;;;;;;;;;;19.80;66.00;;;;;;5035419;28;19916;-72
2023/08/23 04:40:47;;;;;;;;;;;19.80;66.50;;;;;;5035711;28;19921;-72
2023/08/23 04:43:13;;;;;;;;;;;19.70;67.50;;;;;;5035040;28;19932;-72
2023/08/23 04:45:40;;;;;;;;;;;19.70;67.50;;;;;;5035540;28;20029;-72
2023/08/23 04:48:07;;;;;;;;;;;19.80;67.70;;;;;;5035456;28;19913;-72
2023/08/23 04:50:34;;;;;;;;;;;19.90;66.50;;;;;;5035488;28;20011;-72
2023/08/23 04:53:00;;;;;;;;;;;19.70;67.40;;;;;;5033266;28;19955;-72
2023/08/23 04:55:27;;;;;;;;;;;19.80;66.80;;;;;;5034489;28;20008;-72
2023/08/23 04:57:54;;;;;;;;;;;19.70;66.90;;;;;;5035411;28;19921;-72
2023/08/23 05:00:20;;;;;;;;;;;19.70;67.20;;;;;;5034950;28;20297;-72
2023/08/23 05:02:48;;;;;;;;;;;19.90;66.30;;;;;;5035132;28;19915;-72
2023/08/23 05:05:14;;;;;;;;;;;20.00;64.40;;;;;;5034160;28;20016;-72
2023/08/23 05:07:41;;;;;;;;;;;19.90;65.30;;;;;;5035302;28;19909;-72
2023/08/23 05:10:08;;;;;;;;;;;19.80;66.00;;;;;;5042259;28;19909;-72
2023/08/23 05:12:34;;;;;;;;;;;19.80;65.40;;;;;;5033224;28;20259;-72
2023/08/23 05:15:02;;;;;;;;;;;20.00;64.40;;;;;;5034473;28;19910;-72
2023/08/23 05:17:28;;;;;;;;;;;19.90;65.50;;;;;;5034687;28;19917;-72
2023/08/23 05:19:55;;;;;;;;;;;19.80;65.80;;;;;;5034536;28;19921;-72
2023/08/23 05:22:21;;;;;;;;;;;19.70;66.50;;;;;;5034492;28;19924;-72
2023/08/23 05:24:48;;;;;;;;;;;19.90;65.70;;;;;;5034043;28;20413;-71
2023/08/23 05:27:15;;;;;;;;;;;20.10;64.70;;;;;;5033201;28;19909;-71
2023/08/23 05:29:41;;;;;;;;;;;20.20;64.10;;;;;;5035063;28;19909;-72
2023/08/23 05:32:08;;;;;;;;;;;20.20;64.70;;;;;;5034730;28;19909;-73
2023/08/23 05:34:35;;;;;;;;;;;20.10;64.80;;;;;;5033577;28;19948;-72
2023/08/23 05:37:01;;;;;;;;;;;20.10;63.80;;;;;;5034911;28;19913;-73
2023/08/23 05:39:28;;;;;;;;;;;20.10;64.80;;;;;;5034191;28;20252;-73
2023/08/23 05:41:55;;;;;;;;;;;20.20;64.80;;;;;;5034487;28;19956;-72
2023/08/23 05:44:21;;;;;;;;;;;20.30;64.20;;;;;;5033466;28;20337;-72
2023/08/23 05:46:48;;;;;;;;;;;20.40;64.40;;;;;;5034302;28;20025;-73
2023/08/23 05:49:15;;;;;;;;;;;20.40;64.70;;;;;;5034012;28;20390;-72
2023/08/23 05:51:42;;;;;;;;;;;20.30;63.60;;;;;;5034226;28;20322;-72
2023/08/23 05:54:08;;;;;;;;;;;20.30;63.90;;;;;;5034165;28;19909;-72
2023/08/23 05:56:35;;;;;;;;;;;20.40;64.10;;;;;;5034211;28;19909;-74
2023/08/23 05:59:02;;;;;;;;;;;20.20;65.00;;;;;;5034308;28;20008;-74
2023/08/23 06:01:28;;;;;;;;;;;20.30;63.70;;;;;;5033828;28;20018;-74
2023/08/23 06:03:55;;;;;;;;;;;20.20;64.80;;;;;;5033574;28;19909;-73
2023/08/23 06:06:22;;;;;;;;;;;20.10;64.90;;;;;;5034405;28;19909;-73
2023/08/23 06:08:49;;;;;;;;;;;20.10;65.00;;;;;;5048911;28;19932;-73
2023/08/23 06:11:16;;;;;;;;;;;20.10;64.00;;;;;;5033869;28;19909;-72
2023/08/23 06:13:42;;;;;;;;;;;20.00;64.20;;;;;;5033506;28;19939;-72
2023/08/23 06:16:09;;;;;;;;;;;19.80;64.80;;;;;;5033648;28;19920;-72
2023/08/23 06:18:36;;;;;;;;;;;19.60;66.90;;;;;;5033511;28;19945;-72
2023/08/23 06:21:03;;;;;;;;;;;19.40;69.00;;;;;;5033851;28;19909;-72
2023/08/23 06:23:29;;;;;;;;;;;19.30;69.80;;;;;;5033229;28;19909;-72
2023/08/23 06:25:59;;;;;;;;;;;19.30;70.50;;;;;;5031941;28;20282;-72
2023/08/23 06:28:26;;;;;;;;;;;19.00;70.90;;;;;;5033461;28;19909;-72
2023/08/23 06:30:53;;;;;;;;;;;18.90;71.50;;;;;;5048542;28;19909;-71
2023/08/23 06:33:19;;;;;;;;;;;18.90;71.80;;;;;;5033766;28;19913;-72
2023/08/23 06:35:46;;;;;;;;;;;18.70;71.80;;;;;;5033351;28;19916;-72
2023/08/23 06:38:15;;;;;;;;;;;18.70;72.10;;;;;;5033753;28;20007;-72
2023/08/23 06:40:42;;;;;;;;;;;18.70;72.40;;;;;;5033301;28;20389;-72
2023/08/23 06:43:16;;;;;;;;;;;18.60;73.00;;;;;;5033035;28;19929;-72
2023/08/23 06:45:43;;;;;;;;;;;18.50;73.60;;;;;;5048723;28;20015;-72
2023/08/23 06:48:10;;;;;;;;;;;18.60;74.10;;;;;;5033220;28;20007;-72
2023/08/23 06:50:37;;;;;;;;;;;18.60;74.60;;;;;;5033165;28;19987;-71
2023/08/23 06:53:03;;;;;;;;;;;18.60;75.20;;;;;;5033067;28;19909;-72
2023/08/23 06:55:30;;;;;;;;;;;18.50;75.80;;;;;;5032230;28;20025;-73
2023/08/23 06:57:57;;;;;;;;;;;18.50;76.30;;;;;;5032837;28;19913;-72
2023/08/23 07:00:23;;;;;;;;;;;18.60;75.90;;;;;;5032948;28;19996;-72
2023/08/23 07:02:50;;;;;;;;;;;18.50;75.90;;;;;;5033098;28;20321;-72
2023/08/23 07:05:17;;;;;;;;;;;18.40;76.10;;;;;;5033016;28;19953;-72
2023/08/23 07:07:44;;;;;;;;;;;18.30;77.40;;;;;;5038235;28;19955;-72
2023/08/23 07:10:10;;;;;;;;;;;18.30;77.10;;;;;;5034652;28;19909;-72
2023/08/23 07:12:37;;;;;;;;;;;18.30;77.10;;;;;;5032964;28;19955;-72
2023/08/23 07:15:04;;;;;;;;;;;18.20;77.60;;;;;;5033291;28;19909;-72
2023/08/23 07:17:33;;;;;;;;;;;18.20;78.10;;;;;;5032132;28;19909;-72
2023/08/23 07:20:00;;;;;;;;;;;18.20;78.30;;;;;;5032840;28;19917;-72
2023/08/23 07:22:26;;;;;;;;;;;18.20;78.30;;;;;;5032709;28;20011;-72
2023/08/23 07:24:53;;;;;;;;;;;18.10;78.70;;;;;;5030835;28;19909;-72
2023/08/23 07:27:19;;;;;;;;;;;18.00;78.50;;;;;;5032631;28;20004;-72
2023/08/23 07:29:46;;;;;;;;;;;17.90;78.50;;;;;;5033086;28;19980;-73
2023/08/23 07:32:13;;;;;;;;;;;17.90;78.50;;;;;;5032480;28;19959;-72
2023/08/23 07:34:40;;;;;;;;;;;17.70;78.60;;;;;;5032220;28;19909;-71
2023/08/23 07:37:07;;;;;;;;;;;17.60;78.80;;;;;;5036803;28;20348;-73
2023/08/23 07:39:33;;;;;;;;;;;17.60;78.90;;;;;;5036535;28;19921;-72
2023/08/23 07:42:00;;;;;;;;;;;17.50;79.60;;;;;;5037116;28;19916;-72
2023/08/23 07:44:26;;;;;;;;;;;17.40;80.00;;;;;;5035819;28;20016;-72
2023/08/23 07:46:53;;;;;;;;;;;17.40;79.80;;;;;;5036742;28;19983;-72
2023/08/23 07:49:20;;;;;;;;;;;17.30;80.30;;;;;;5036348;28;19917;-72
2023/08/23 07:51:48;;;;;;;;;;;17.30;79.90;;;;;;5036547;28;19913;-72
2023/08/23 07:54:14;;;;;;;;;;;17.30;80.40;;;;;;5036131;28;19966;-72
2023/08/23 07:56:41;;;;;;;;;;;17.30;80.00;;;;;;5036432;28;19916;-73
2023/08/23 07:59:08;;;;;;;;;;;17.20;81.00;;;;;;5036232;28;19979;-72
2023/08/23 08:01:34;;;;;;;;;;;17.10;80.50;;;;;;5036775;28;20367;-73
2023/08/23 08:04:01;;;;;;;;;;;17.10;80.80;;;;;;5035892;28;19913;-72
2023/08/23 08:06:28;;;;;;;;;;;17.20;80.60;;;;;;5035303;28;19952;-72
2023/08/23 08:08:54;;;;;;;;;;;17.10;80.90;;;;;;5036802;28;19959;-72
2023/08/23 08:11:21;;;;;;;;;;;17.10;81.30;;;;;;5051792;28;20382;-72
2023/08/23 08:13:48;;;;;;;;;;;17.10;80.90;;;;;;5036384;28;19955;-71
2023/08/23 08:16:15;;;;;;;;;;;17.00;81.60;;;;;;5036301;28;20671;-72
2023/08/23 08:18:43;;;;;;;;;;;17.00;81.90;;;;;;5036101;28;20419;-72
2023/08/23 08:21:10;;;;;;;;;;;17.00;82.00;;;;;;5035655;28;19909;-72
2023/08/23 08:23:37;;;;;;;;;;;17.00;82.20;;;;;;5035834;28;19910;-72
2023/08/23 08:26:05;;;;;;;;;;;17.00;82.70;;;;;;5035513;28;20310;-73
2023/08/23 08:28:32;;;;;;;;;;;17.00;83.10;;;;;;5034627;28;19917;-72
2023/08/23 08:30:58;;;;;;;;;;;16.90;83.30;;;;;;5036418;28;19909;-72
2023/08/23 08:33:25;;;;;;;;;;;16.90;83.90;;;;;;5035726;28;19939;-73
2023/08/23 08:35:52;;;;;;;;;;;16.90;84.00;;;;;;5035777;28;19956;-72
2023/08/23 08:38:18;;;;;;;;;;;16.80;84.30;;;;;;5050970;28;19916;-72
2023/08/23 08:40:45;;;;;;;;;;;16.80;84.70;;;;;;5035496;28;20421;-72
2023/08/23 08:43:12;;;;;;;;;;;16.90;84.60;;;;;;5035529;28;19925;-73
2023/08/23 08:45:39;;;;;;;;;;;16.80;85.10;;;;;;5035310;28;19909;-72
2023/08/23 08:48:06;;;;;;;;;;;16.70;85.30;;;;;;5034890;28;19909;-72
2023/08/23 08:50:33;;;;;;;;;;;16.80;85.60;;;;;;5035216;28;20777;-72
2023/08/23 08:53:00;;;;;;;;;;;16.80;85.60;;;;;;5035675;28;19916;-72
2023/08/23 08:55:29;;;;;;;;;;;16.80;86.00;;;;;;5035583;28;19916;-72
2023/08/23 08:57:56;;;;;;;;;;;16.80;85.80;;;;;;5035683;28;19956;-72
2023/08/23 09:00:25;;;;;;;;;;;16.80;86.30;;;;;;5035302;28;19975;-72
2023/08/23 09:02:57;;;;;;;;;;;16.70;86.60;;;;;;5035042;28;20352;-72
2023/08/23 09:05:24;;;;;;;;;;;16.70;86.50;;;;;;5035270;28;19913;-72
2023/08/23 09:07:51;;;;;;;;;;;16.70;86.90;;;;;;5042671;28;19913;-72
2023/08/23 09:10:19;;;;;;;;;;;16.70;87.00;;;;;;5050386;28;19913;-73
2023/08/23 09:12:45;;;;;;;;;;;16.70;86.90;;;;;;5050464;28;19960;-72
2023/08/23 09:15:12;;;;;;;;;;;16.70;87.30;;;;;;5034464;28;19909;-72
2023/08/23 09:17:39;;;;;;;;;;;16.50;88.10;;;;;;5034902;28;19913;-72
2023/08/23 09:20:09;;;;;;;;;;;16.50;88.50;;;;;;5035094;28;19917;-72
2023/08/23 09:22:36;;;;;;;;;;;16.60;88.60;;;;;;5033236;28;19916;-72
2023/08/23 09:25:03;;;;;;;;;;;16.60;88.60;;;;;;5048434;28;19913;-72
2023/08/23 09:27:30;;;;;;;;;;;16.70;88.20;;;;;;5034147;28;19999;-72
2023/08/23 09:29:58;;;;;;;;;;;16.50;88.70;;;;;;5033981;28;20012;-72
2023/08/23 09:32:28;;;;;;;;;;;16.60;88.50;;;;;;5034208;28;19910;-73
2023/08/23 09:34:56;;;;;;;;;;;16.60;88.80;;;;;;5033915;28;19917;-72
2023/08/23 09:37:22;;;;;;;;;;;16.60;88.80;;;;;;5033989;28;20380;-72
2023/08/23 09:39:49;;;;;;;;;;;16.50;89.80;;;;;;5033995;28;19917;-72
2023/08/23 09:42:16;;;;;;;;;;;16.50;89.70;;;;;;5033640;28;20267;-72
2023/08/23 09:44:43;;;;;;;;;;;16.40;90.10;;;;;;5033333;28;19999;-73
2023/08/23 09:47:20;;;;;;;;;;;16.40;90.20;;;;;;5033884;28;19959;-72
2023/08/23 09:49:48;;;;;;;;;;;16.40;90.30;;;;;;5032001;28;19920;-72
2023/08/23 09:52:15;;;;;;;;;;;16.30;90.50;;;;;;5033748;28;19916;-72
2023/08/23 09:54:53;;;;;;;;;;;16.30;90.50;;;;;;5033114;28;19956;-72
2023/08/23 09:57:21;;;;;;;;;;;16.20;90.60;;;;;;5033964;28;19917;-72
2023/08/23 09:59:48;;;;;;;;;;;16.20;90.70;;;;;;5032404;28;19928;-72
2023/08/23 10:02:17;;;;;;;;;;;16.20;90.70;;;;;;5032175;28;19909;-72
2023/08/23 10:04:43;;;;;;;;;;;16.20;90.80;;;;;;5033217;28;19915;-72
2023/08/23 10:07:13;;;;;;;;;;;16.20;90.90;;;;;;5042510;28;19992;-73
2023/08/23 10:09:40;;;;;;;;;;;16.20;91.00;;;;;;5053162;28;20043;-73
2023/08/23 10:12:08;;;;;;;;;;;16.20;91.20;;;;;;5046834;28;19917;-73
2023/08/23 10:14:37;;;;;;;;;;;16.20;90.90;;;;;;5033049;28;19913;-73
2023/08/23 10:17:04;;;;;;;;;;;16.30;90.90;;;;;;5033420;28;19959;-73
2023/08/23 10:19:32;;;;;;;;;;;16.30;90.90;;;;;;5033180;28;20259;-72
2023/08/23 10:21:58;;;;;;;;;;;16.20;91.00;;;;;;5033000;28;19909;-72
2023/08/23 10:24:28;;;;;;;;;;;16.20;91.20;;;;;;5033077;28;19971;-72
2023/08/23 10:26:55;;;;;;;;;;;16.20;91.10;;;;;;5033281;28;19913;-72
2023/08/23 10:29:28;;;;;;;;;;;16.10;91.20;;;;;;5033052;28;19909;-72
2023/08/23 10:31:55;;;;;;;;;;;16.10;91.40;;;;;;5033002;28;20277;-72
2023/08/23 10:34:26;;;;;;;;;;;16.00;91.40;;;;;;5031861;28;19910;-72
2023/08/23 10:36:53;;;;;;;;;;;16.00;91.50;;;;;;5033175;28;19918;-72
2023/08/23 10:39:27;;;;;;;;;;;15.90;91.60;;;;;;5032829;28;20275;-72
2023/08/23 10:41:56;;;;;;;;;;;15.90;91.60;;;;;;5032878;28;20016;-72
2023/08/23 10:44:23;;;;;;;;;;;15.90;91.60;;;;;;5032295;28;20051;-72
2023/08/23 10:46:51;;;;;;;;;;;15.90;91.70;;;;;;5032790;28;20358;-71
2023/08/23 10:49:21;;;;;;;;;;;15.90;91.70;;;;;;5032248;28;19952;-72
2023/08/23 10:51:48;;;;;;;;;;;15.80;91.80;;;;;;5032810;28;19954;-72
2023/08/23 10:54:14;;;;;;;;;;;15.80;92.00;;;;;;5032489;28;19954;-72
2023/08/23 10:56:42;;;;;;;;;;;15.80;92.10;;;;;;5032284;28;19948;-72
2023/08/23 10:59:08;;;;;;;;;;;15.70;92.10;;;;;;5032411;28;19917;-72
2023/08/23 11:01:38;;;;;;;;;;;15.80;92.10;;;;;;5032237;28;20051;-72
2023/08/23 11:04:06;;;;;;;;;;;15.80;92.00;;;;;;5030854;28;19913;-72
2023/08/23 11:06:33;;;;;;;;;;;15.80;92.10;;;;;;5039738;28;19910;-72
2023/08/23 11:09:00;;;;;;;;;;;15.70;92.10;;;;;;5032502;28;19920;-72
2023/08/23 11:11:30;;;;;;;;;;;15.70;92.10;;;;;;5032460;28;19913;-72
2023/08/23 11:13:57;;;;;;;;;;;15.60;92.20;;;;;;5047103;28;20282;-72
2023/08/23 11:16:24;;;;;;;;;;;15.70;92.40;;;;;;5032165;28;19917;-72
2023/08/23 11:18:51;;;;;;;;;;;15.60;92.40;;;;;;5032319;28;19924;-71
2023/08/23 11:21:18;;;;;;;;;;;15.60;92.50;;;;;;5032271;28;20011;-72
2023/08/23 11:23:45;;;;;;;;;;;15.60;92.70;;;;;;5031966;28;19909;-71
2023/08/23 11:26:11;;;;;;;;;;;15.60;92.60;;;;;;5032522;28;20009;-71
2023/08/23 11:28:38;;;;;;;;;;;15.60;92.70;;;;;;5031483;28;20007;-71
2023/08/23 11:31:08;;;;;;;;;;;15.50;92.80;;;;;;5032380;28;19967;-71
2023/08/23 11:33:37;;;;;;;;;;;15.50;92.70;;;;;;5047238;28;20011;-72
2023/08/23 11:36:04;;;;;;;;;;;15.50;92.80;;;;;;5032870;28;19956;-72
2023/08/23 11:38:31;;;;;;;;;;;15.40;93.00;;;;;;5031170;28;19910;-72
2023/08/23 11:40:58;;;;;;;;;;;15.40;93.10;;;;;;5030542;28;19943;-72
2023/08/23 11:43:28;;;;;;;;;;;15.30;93.30;;;;;;5030325;28;19987;-72
2023/08/23 11:45:55;;;;;;;;;;;15.30;93.50;;;;;;5030991;28;20003;-71
2023/08/23 11:48:25;;;;;;;;;;;15.30;93.40;;;;;;5030676;28;20015;-72
2023/08/23 11:50:52;;;;;;;;;;;15.20;93.50;;;;;;5030845;28;19957;-72
2023/08/23 11:53:18;;;;;;;;;;;15.30;93.50;;;;;;5030738;28;20366;-72
2023/08/23 11:55:45;;;;;;;;;;;15.30;93.50;;;;;;5032519;28;19952;-72
2023/08/23 11:58:12;;;;;;;;;;;15.30;93.40;;;;;;5032347;28;20005;-72
2023/08/23 12:00:38;;;;;;;;;;;15.20;93.50;;;;;;5032594;28;19921;-72
2023/08/23 12:03:05;;;;;;;;;;;15.10;93.70;;;;;;5032647;28;19909;-72
2023/08/23 12:05:32;;;;;;;;;;;15.10;93.80;;;;;;5022713;28;20259;-71
2023/08/23 12:07:58;;;;;;;;;;;15.00;93.80;;;;;;5032710;28;20360;-71
2023/08/23 12:10:25;;;;;;;;;;;15.00;93.80;;;;;;5030759;28;20247;-72
2023/08/23 12:12:52;;;;;;;;;;;15.00;94.00;;;;;;5032614;28;19917;-72
2023/08/23 12:15:19;;;;;;;;;;;14.90;93.90;;;;;;5031419;28;19913;-71
2023/08/23 12:17:45;;;;;;;;;;;14.90;93.90;;;;;;5032358;28;20370;-72
2023/08/23 12:20:12;;;;;;;;;;;14.90;94.00;;;;;;5032243;28;20363;-71
2023/08/23 12:22:49;;;;;;;;;;;14.90;94.20;;;;;;5033789;28;20011;-71
2023/08/23 12:25:16;;;;;;;;;;;14.90;94.00;;;;;;5036169;28;19909;-72
2023/08/23 12:27:43;;;;;;;;;;;14.90;94.10;;;;;;5036066;28;19916;-72
2023/08/23 12:30:09;;;;;;;;;;;14.90;94.20;;;;;;5034697;28;20298;-73
2023/08/23 12:32:36;;;;;;;;;;;14.90;94.30;;;;;;5035866;28;20310;-71
2023/08/23 12:35:06;;;;;;;;;;;14.90;94.20;;;;;;5035646;28;19909;-72
2023/08/23 12:37:33;;;;;;;;;;;14.90;94.50;;;;;;5035503;28;19916;-72
2023/08/23 12:40:00;;;;;;;;;;;14.90;94.40;;;;;;5035660;28;19928;-72
2023/08/23 12:42:26;;;;;;;;;;;14.90;94.40;;;;;;5034545;28;19916;-72
2023/08/23 12:44:53;;;;;;;;;;;14.90;94.30;;;;;;5034483;28;19925;-71
2023/08/23 12:47:23;;;;;;;;;;;14.90;94.30;;;;;;5034106;28;20290;-73
2023/08/23 12:49:50;;;;;;;;;;;14.90;94.40;;;;;;5034504;28;19933;-72
2023/08/23 12:52:17;;;;;;;;;;;14.80;94.40;;;;;;5034774;28;19944;-73
2023/08/23 12:54:43;;;;;;;;;;;14.80;94.30;;;;;;5034534;28;19913;-72
2023/08/23 12:57:10;;;;;;;;;;;14.80;94.30;;;;;;5034769;28;20015;-72
2023/08/23 12:59:37;;;;;;;;;;;14.80;94.40;;;;;;5035163;28;20016;-73
2023/08/23 13:02:03;;;;;;;;;;;14.70;94.50;;;;;;5034430;28;20386;-71
2023/08/23 13:04:30;;;;;;;;;;;14.70;94.50;;;;;;5036642;28;19909;-73
2023/08/23 13:06:57;;;;;;;;;;;14.70;94.70;;;;;;5037442;28;19917;-72
2023/08/23 13:09:24;;;;;;;;;;;14.60;94.60;;;;;;5033372;28;19916;-72
2023/08/23 13:11:50;;;;;;;;;;;14.70;94.70;;;;;;5033341;28;20336;-72
2023/08/23 13:14:17;;;;;;;;;;;14.60;94.60;;;;;;5033054;28;19914;-71
2023/08/23 13:16:44;;;;;;;;;;;14.60;94.80;;;;;;5033603;28;19909;-71
2023/08/23 13:19:10;;;;;;;;;;;14.50;94.90;;;;;;5034816;28;19913;-71
2023/08/23 13:21:37;;;;;;;;;;;14.60;95.10;;;;;;5035137;28;19920;-71
2023/08/23 13:24:04;;;;;;;;;;;14.60;94.90;;;;;;5034627;28;19909;-71
2023/08/23 13:26:30;;;;;;;;;;;14.60;94.90;;;;;;5034916;28;19917;-71
2023/08/23 13:28:57;;;;;;;;;;;14.60;95.10;;;;;;5035303;28;19987;-71
2023/08/23 13:31:24;;;;;;;;;;;14.50;94.90;;;;;;5034494;28;19992;-71
2023/08/23 13:33:50;;;;;;;;;;;14.50;95.10;;;;;;5034171;28;19913;-71
2023/08/23 13:36:17;;;;;;;;;;;14.50;95.10;;;;;;5032980;28;20054;-71
2023/08/23 13:38:44;;;;;;;;;;;14.50;95.20;;;;;;5034396;28;19913;-71
2023/08/23 13:41:10;;;;;;;;;;;14.40;95.10;;;;;;5034363;28;20422;-71
2023/08/23 13:43:38;;;;;;;;;;;14.30;95.30;;;;;;5034531;28;19920;-71
2023/08/23 13:46:04;;;;;;;;;;;14.30;95.40;;;;;;5034313;28;19913;-71
2023/08/23 13:48:31;;;;;;;;;;;14.30;95.40;;;;;;5034405;28;19910;-72
2023/08/23 13:50:58;;;;;;;;;;;14.20;95.60;;;;;;5034567;28;19912;-71
2023/08/23 13:53:24;;;;;;;;;;;14.20;95.60;;;;;;5034201;28;19913;-71
2023/08/23 13:55:51;;;;;;;;;;;14.10;95.70;;;;;;5034401;28;19909;-72
2023/08/23 13:58:18;;;;;;;;;;;14.10;95.70;;;;;;5034081;28;19913;-72
2023/08/23 14:00:45;;;;;;;;;;;14.00;95.80;;;;;;5032651;28;19917;-72
2023/08/23 14:03:11;;;;;;;;;;;14.10;95.90;;;;;;5034607;28;19913;-72
2023/08/23 14:05:38;;;;;;;;;;;14.00;95.90;;;;;;5032879;28;19920;-72
2023/08/23 14:08:05;;;;;;;;;;;14.00;96.00;;;;;;5034131;28;20290;-72
2023/08/23 14:10:31;;;;;;;;;;;14.00;95.80;;;;;;5034034;28;19909;-72
2023/08/23 14:12:58;;;;;;;;;;;13.90;95.70;;;;;;5034348;28;19919;-72
2023/08/23 14:15:25;;;;;;;;;;;13.90;95.80;;;;;;5032764;28;19917;-72
2023/08/23 14:17:51;;;;;;;;;;;13.70;95.80;;;;;;5034120;28;19909;-71